Fortson, Georgia
Current Conditions -  °F | °C
As of 8:51 PM on Thursday 18 Dec 2014 (Local Time) from KCSG Reporting Station
Clear Clear  
Wind Chill: 51°   Ceiling: Unl
Heat Index: 51°   Visibility: 10mi
Dew Point: 34°   Wind: 3mph
Humidity: 52%   Direction: 340°NNW
Pressure: 30.14"   Gusts: NA
Location:  32.6°N, 84.94°W
Report Text: KCSG 190151Z AUTO 34003KT 10SM CLR 11/01 A3014 RMK AO2 SLP208 T01060011
Loading
Personal Weather Stations






























Interactive Weather Map New forecast layout! Learn more

10-Day Weather Forecast

Advertisements
Track Severe Weather on mobile